Time;durP1;ratioP1;P1;durP2;ratioP2;P2;SDS_P1;SDS_P2;PMS_P1;PMS_P2;Temp;Humidity;BMP_temperature;BMP_pressure;BME280_temperature;BME280_humidity;BME280_pressure;Samples;Min_cycle;Max_cycle;Signal;HPM_P1;HPM_P2
2021/01/16 00:00:56;;;;;;;54.03;22.52;;;;;;;-6.72;75.89;100988.87;1642014;85;26165;-79
2021/01/16 00:03:24;;;;;;;57.38;20.52;;;;;;;-6.71;76.05;100983.17;1669001;82;27529;-79
2021/01/16 00:05:55;;;;;;;55.43;21.45;;;;;;;-6.69;76.01;100980.89;1670522;83;26444;-79
2021/01/16 00:08:24;;;;;;;45.43;20.27;;;;;;;-6.72;76.06;100986.27;1688113;82;34979;-79
2021/01/16 00:10:54;;;;;;;49.73;19.65;;;;;;;-6.70;76.22;100980.53;1649509;83;25819;-80
2021/01/16 00:13:25;;;;;;;36.55;17.20;;;;;;;-6.68;76.21;100983.05;1651046;86;26347;-79
2021/01/16 00:15:53;;;;;;;40.08;19.92;;;;;;;-6.71;76.16;100977.97;1667961;84;27551;-79
2021/01/16 00:18:25;;;;;;;52.38;19.98;;;;;;;-6.75;76.21;100974.66;1699773;81;25880;-78
2021/01/16 00:20:55;;;;;;;53.73;24.23;;;;;;;-6.74;76.28;100970.31;1649914;85;26411;-78
2021/01/16 00:23:23;;;;;;;;;;;;;;;-6.78;76.35;100966.16;1709441;83;25807;-80
2021/01/16 00:25:52;;;;;;;48.23;20.17;;;;;;;-6.77;76.42;100970.43;1681844;83;25823;-79
2021/01/16 00:28:23;;;;;;;47.90;19.87;;;;;;;-6.81;76.47;100967.13;1697163;83;27590;-78
2021/01/16 00:30:50;;;;;;;;;;;;;;;-6.80;76.58;100973.19;1624890;84;25845;-79
2021/01/16 00:33:21;;;;;;;54.90;22.58;;;;;;;-6.79;76.65;100970.52;1681936;83;26453;-79
2021/01/16 00:35:50;;;;;;;48.25;20.92;;;;;;;-6.77;76.78;100978.25;1671526;83;26484;-79
2021/01/16 00:38:18;;;;;;;52.70;22.70;;;;;;;-6.73;76.75;100978.05;1620860;86;26223;-81
2021/01/16 00:40:46;;;;;;;52.65;22.75;;;;;;;-6.69;76.89;100966.56;1672933;83;28561;-79
2021/01/16 00:57:42;;;;;;;59.23;24.85;;;;;;;-5.72;75.37;100958.86;1702734;81;25725;-79
2021/01/16 01:00:14;;;;;;;60.43;27.17;;;;;;;-5.92;75.53;100965.52;1653037;83;25836;-79
2021/01/16 01:02:44;;;;;;;56.90;22.37;;;;;;;-5.98;75.93;100963.67;1674237;83;27005;-79
2021/01/16 01:05:15;;;;;;;60.88;25.65;;;;;;;-6.04;76.03;100963.97;1686450;83;26152;-79
2021/01/16 01:07:51;;;;;;;73.35;30.08;;;;;;;-6.10;76.24;100966.42;1637071;84;26451;-79
2021/01/16 01:10:34;;;;;;;72.20;30.65;;;;;;;-6.12;76.30;100963.05;1668365;84;25920;-79
2021/01/16 01:13:03;;;;;;;61.35;26.97;;;;;;;-6.11;76.49;100961.26;1703556;82;25647;-79
2021/01/16 01:15:31;;;;;;;63.80;28.02;;;;;;;-6.13;76.54;100954.82;1686988;83;28412;-78
2021/01/16 01:18:01;;;;;;;65.40;26.62;;;;;;;-6.18;76.59;100958.13;1656149;83;25714;-78
2021/01/16 01:20:29;;;;;;;65.55;27.50;;;;;;;-6.22;76.85;100953.13;1678379;84;25285;-80
2021/01/16 01:22:58;;;;;;;68.90;30.12;;;;;;;-6.23;76.88;100947.52;1693376;83;26378;-79
2021/01/16 01:25:26;;;;;;;67.05;27.60;;;;;;;-6.26;77.01;100944.59;1697308;83;25801;-79
2021/01/16 01:27:57;;;;;;;69.58;27.05;;;;;;;-6.24;77.21;100951.05;1649474;83;27502;-79
2021/01/16 01:30:29;;;;;;;72.08;31.30;;;;;;;-6.26;77.19;100953.70;1649892;83;25770;-80
2021/01/16 01:32:59;;;;;;;61.53;29.77;;;;;;;-6.29;77.38;100948.66;1672536;83;25727;-79
2021/01/16 01:35:28;;;;;;;69.27;31.35;;;;;;;-6.24;77.51;100949.27;1696784;83;26096;-80
2021/01/16 01:37:57;;;;;;;68.20;28.60;;;;;;;-6.23;77.58;100950.97;1678355;83;25898;-79
2021/01/16 01:40:27;;;;;;;62.55;26.42;;;;;;;-6.22;77.66;100948.73;1675015;83;27436;-79
2021/01/16 01:42:57;;;;;;;68.30;28.95;;;;;;;-6.19;77.65;100939.48;1671617;83;25757;-81
2021/01/16 01:45:26;;;;;;;64.23;26.87;;;;;;;-6.17;77.77;100942.00;1706319;83;26295;-79
2021/01/16 01:47:55;;;;;;;59.03;26.15;;;;;;;-6.14;77.80;100936.66;1660566;83;25730;-79
2021/01/16 01:50:24;;;;;;;49.70;21.90;;;;;;;-6.11;77.79;100932.58;1684396;82;25742;-79
2021/01/16 01:52:54;;;;;;;59.13;24.57;;;;;;;-6.12;77.83;100933.52;1679781;84;28166;-80
2021/01/16 01:55:23;;;;;;;;;;;;;;;-6.14;77.88;100934.05;1707509;83;25492;-78
2021/01/16 01:57:54;;;;;;;55.83;24.10;;;;;;;-6.12;78.03;100934.36;1646376;83;26066;-79
2021/01/16 02:00:24;;;;;;;55.83;25.62;;;;;;;-6.13;78.00;100939.63;1696122;83;26201;-80
2021/01/16 02:02:59;;;;;;;47.23;19.23;;;;;;;-6.10;78.15;100936.89;1657320;84;25985;-78
2021/01/16 02:05:27;;;;;;;59.38;27.05;;;;;;;-6.10;78.20;100936.89;1660189;84;27440;-79
2021/01/16 02:07:58;;;;;;;55.63;23.30;;;;;;;-6.11;78.24;100928.67;1655765;83;26314;-79
2021/01/16 02:10:26;;;;;;;56.42;24.15;;;;;;;-6.11;78.20;100935.19;1659781;83;25715;-80
2021/01/16 02:12:56;;;;;;;67.37;27.93;;;;;;;-6.12;78.38;100927.00;1678128;83;25773;-79
2021/01/16 02:15:51;;;;;;;50.00;22.73;;;;;;;-6.10;78.48;100930.38;1663532;82;25972;-79
2021/01/16 02:18:30;;;;;;;51.75;21.93;;;;;;;-6.06;78.51;100936.67;1691348;83;27889;-80
2021/01/16 02:21:02;;;;;;;51.33;25.77;;;;;;;-6.09;78.51;100936.81;1697198;82;25607;-79
2021/01/16 02:23:38;;;;;;;48.63;22.95;;;;;;;-6.08;78.63;100931.14;1685685;83;25686;-79
2021/01/16 02:26:26;;;;;;;45.28;20.05;;;;;;;-6.03;78.84;100929.17;1686601;83;25690;-79
2021/01/16 02:29:08;;;;;;;54.35;22.07;;;;;;;-6.00;78.78;100925.94;1706421;82;26404;-80
2021/01/16 02:32:01;;;;;;;51.20;23.52;;;;;;;-5.99;78.85;100930.25;1692333;83;28369;-80
2021/01/16 02:34:37;;;;;;;55.98;22.05;;;;;;;-5.97;78.95;100927.11;1680380;83;25923;-79
2021/01/16 02:37:33;;;;;;;60.00;22.20;;;;;;;-5.95;78.91;100929.18;1689902;83;25834;-79
2021/01/16 02:40:18;;;;;;;41.90;19.90;;;;;;;-5.96;78.99;100928.78;1715341;83;26190;-78
2021/01/16 02:43:13;;;;;;;36.93;16.55;;;;;;;-5.98;78.93;100933.23;1714313;83;26239;-79
2021/01/16 02:46:13;;;;;;;38.20;17.87;;;;;;;-6.00;79.25;100936.83;1687361;83;27239;-79
2021/01/16 02:49:08;;;;;;;40.73;17.42;;;;;;;-6.07;79.22;100937.58;1719318;83;26047;-80
2021/01/16 02:52:12;;;;;;;45.10;17.65;;;;;;;-6.04;79.41;100940.05;1710553;83;26418;-79
2021/01/16 02:54:42;;;;;;;36.50;16.25;;;;;;;-6.02;79.45;100940.81;1695634;83;26019;-80
2021/01/16 02:57:12;;;;;;;22.75;9.75;;;;;;;-6.03;79.70;100936.98;1672996;82;26068;-79
2021/01/16 03:11:25;;;;;;;39.67;18.52;;;;;;;-5.17;77.91;100940.39;1839994;77;25767;-79
2021/01/16 03:13:54;;;;;;;41.55;17.02;;;;;;;-5.30;78.23;100936.75;1736742;79;25820;-80
2021/01/16 03:16:27;;;;;;;39.38;17.90;;;;;;;-5.34;78.47;100936.50;1686286;84;28267;-79
2021/01/16 03:19:06;;;;;;;43.87;18.87;;;;;;;-5.29;78.67;100937.12;1793512;79;25728;-79
2021/01/16 03:21:39;;;;;;;39.98;16.42;;;;;;;-5.30;78.84;100941.98;1716546;83;26510;-79
2021/01/16 03:37:03;;;;;;;38.42;17.85;;;;;;;-4.24;76.61;100919.64;1771592;77;25667;-80
2021/01/16 03:39:31;;;;;;;35.48;17.05;;;;;;;-4.45;76.67;100914.75;1707454;81;26140;-79
2021/01/16 03:41:59;;;;;;;34.98;15.75;;;;;;;-4.62;76.89;100918.29;1703724;81;27334;-80
2021/01/16 03:44:26;;;;;;;39.03;17.27;;;;;;;-4.66;77.05;100922.45;1704894;81;25945;-80
2021/01/16 03:46:53;;;;;;;34.92;16.05;;;;;;;-4.75;77.36;100920.70;1699162;81;25846;-80
2021/01/16 03:49:21;;;;;;;35.33;17.85;;;;;;;-4.77;77.43;100919.12;1692322;81;25368;-80
2021/01/16 03:51:48;;;;;;;42.70;17.40;;;;;;;-4.84;77.52;100919.91;1696411;81;25896;-79
2021/01/16 03:54:15;;;;;;;38.40;16.60;;;;;;;-4.83;77.56;100919.42;1726998;80;27793;-80
2021/01/16 03:56:43;;;;;;;40.20;17.95;;;;;;;-4.87;77.52;100934.42;1672648;81;26118;-79
2021/01/16 03:59:10;;;;;;;37.13;17.57;;;;;;;-4.93;77.63;100926.06;1690872;81;25930;-78
2021/01/16 04:01:38;;;;;;;39.05;17.48;;;;;;;-4.88;78.07;100923.61;1685488;81;25791;-80
2021/01/16 04:04:06;;;;;;;36.25;16.57;;;;;;;-4.81;78.11;100921.48;1732450;81;25727;-80
2021/01/16 04:06:33;;;;;;;40.12;18.10;;;;;;;-4.79;77.86;100920.97;1670538;81;27529;-81
2021/01/16 04:09:00;;;;;;;39.13;17.73;;;;;;;-4.75;77.84;100919.39;1688297;81;25416;-80
2021/01/16 04:11:29;;;;;;;40.17;17.52;;;;;;;-4.72;77.94;100916.62;1702983;81;26377;-81
2021/01/16 04:13:56;;;;;;;38.28;15.85;;;;;;;-4.71;77.94;100915.72;1728871;81;25357;-80
2021/01/16 04:16:27;;;;;;;34.50;16.32;;;;;;;-4.65;77.93;100906.69;1655876;81;25926;-80
2021/01/16 04:18:56;;;;;;;30.65;15.13;;;;;;;-4.58;77.84;100901.97;1727543;81;28458;-80
2021/01/16 04:21:23;;;;;;;33.18;15.45;;;;;;;-4.58;77.62;100909.35;1703324;81;26175;-80
2021/01/16 04:23:51;;;;;;;32.55;15.68;;;;;;;-4.50;77.51;100913.69;1702970;81;25803;-79
2021/01/16 04:26:18;;;;;;;35.08;15.20;;;;;;;-4.46;77.20;100911.28;1693299;81;25823;-80
2021/01/16 04:28:45;;;;;;;40.30;17.70;;;;;;;-4.48;77.19;100903.99;1691785;80;25889;-80
2021/01/16 04:31:13;;;;;;;33.90;17.30;;;;;;;-4.46;76.84;100903.44;1709451;81;28306;-79
2021/01/16 04:33:40;;;;;;;36.58;17.48;;;;;;;-4.51;76.74;100903.33;1724486;81;26430;-79
2021/01/16 04:36:08;;;;;;;35.73;15.88;;;;;;;-4.51;76.84;100903.33;1690191;81;25774;-82
2021/01/16 04:38:37;;;;;;;37.30;15.63;;;;;;;-4.51;76.63;100902.84;1721448;81;25885;-79
2021/01/16 04:41:04;;;;;;;34.38;15.05;;;;;;;-4.51;76.26;100906.77;1726860;81;25765;-81
2021/01/16 04:43:31;;;;;;;30.37;14.58;;;;;;;-4.55;76.31;100911.78;1741806;81;28560;-83
2021/01/16 04:46:08;;;;;;;34.27;15.68;;;;;;;-4.55;76.30;100902.63;1706602;81;25850;-81
2021/01/16 04:48:37;;;;;;;31.30;14.83;;;;;;;-4.51;76.43;100905.94;1722017;81;25826;-79
2021/01/16 04:51:05;;;;;;;34.45;18.05;;;;;;;-4.46;76.52;100896.91;1712442;81;26154;-80
2021/01/16 04:53:39;;;;;;;48.13;24.82;;;;;;;-4.50;76.40;100885.39;1747035;81;26222;-80
2021/01/16 04:56:08;;;;;;;52.35;25.68;;;;;;;-4.59;76.19;100887.20;1674327;81;28460;-80
2021/01/16 04:58:39;;;;;;;33.10;17.00;;;;;;;-4.66;76.13;100895.84;1709897;81;26070;-79
2021/01/16 05:01:08;;;;;;;33.05;15.58;;;;;;;-4.71;76.25;100886.12;1720404;81;25739;-79
2021/01/16 05:03:43;;;;;;;35.43;17.05;;;;;;;-4.75;76.27;100889.34;1722580;81;26193;-79
2021/01/16 05:06:13;;;;;;;38.83;16.45;;;;;;;-4.74;76.35;100891.05;1684003;82;25638;-79
2021/01/16 05:08:43;;;;;;;35.63;15.40;;;;;;;-4.74;76.18;100892.80;1725350;82;28157;-80
2021/01/16 05:11:37;;;;;;;31.12;15.63;;;;;;;-4.78;76.03;100903.05;1734712;81;25785;-78
2021/01/16 05:14:20;;;;;;;37.70;16.23;;;;;;;-4.86;75.38;100908.70;1834794;77;25779;-80
2021/01/16 05:16:57;;;;;;;36.25;17.05;;;;;;;-5.03;75.59;100913.12;1759258;80;25705;-79
2021/01/16 05:19:36;;;;;;;36.00;15.53;;;;;;;-5.12;75.79;100913.14;1749708;80;27344;-79
2021/01/16 05:22:03;;;;;;;37.17;16.52;;;;;;;-5.20;75.61;100915.31;1772763;80;25754;-80
2021/01/16 05:24:31;;;;;;;36.75;17.32;;;;;;;-5.19;75.95;100914.38;1701039;81;25806;-79
2021/01/16 05:27:06;;;;;;;37.33;17.85;;;;;;;-5.14;76.22;100914.98;1721086;80;26160;-79
2021/01/16 05:29:36;;;;;;;34.90;16.55;;;;;;;-5.12;76.13;100915.75;1740534;80;25789;-79
2021/01/16 05:32:05;;;;;;;31.30;15.43;;;;;;;-5.14;75.99;100913.69;1770836;80;27746;-80
2021/01/16 05:34:34;;;;;;;33.38;15.38;;;;;;;-5.16;75.86;100916.84;1699332;80;26004;-80
2021/01/16 05:37:02;;;;;;;31.90;15.53;;;;;;;-5.16;75.84;100919.45;1740210;80;25797;-80
2021/01/16 05:39:33;;;;;;;31.87;15.38;;;;;;;-5.21;75.85;100920.14;1725916;79;26400;-80
2021/01/16 05:42:04;;;;;;;34.80;16.55;;;;;;;-5.25;75.81;100913.39;1741478;80;25806;-79
2021/01/16 05:44:34;;;;;;;32.23;15.13;;;;;;;-5.22;75.85;100909.33;1727326;79;27537;-79
2021/01/16 05:47:02;;;;;;;32.73;14.78;;;;;;;-5.16;75.94;100908.16;1720677;80;25936;-80
2021/01/16 05:49:29;;;;;;;42.23;16.40;;;;;;;-5.10;75.61;100907.38;1720584;80;25557;-79
2021/01/16 05:51:56;;;;;;;25.90;14.10;;;;;;;-5.05;75.32;100906.68;1773295;80;25775;-80
2021/01/16 05:54:26;;;;;;;37.00;16.07;;;;;;;-5.06;74.92;100902.82;1718845;80;26549;-80
2021/01/16 05:56:54;;;;;;;33.67;16.00;;;;;;;-5.12;74.71;100898.78;1717949;81;27538;-79
2021/01/16 05:59:25;;;;;;;37.83;18.52;;;;;;;-5.09;75.04;100894.68;1686249;82;25811;-80
2021/01/16 06:01:55;;;;;;;37.78;17.70;;;;;;;-5.06;74.74;100894.98;1752276;81;25810;-79
2021/01/16 06:04:23;;;;;;;35.92;17.17;;;;;;;-5.00;75.29;100896.81;1675006;83;25408;-80
2021/01/16 06:06:51;;;;;;;47.98;23.75;;;;;;;-4.95;75.00;100890.05;1692212;81;25734;-79
2021/01/16 06:09:20;;;;;;;48.63;26.20;;;;;;;-5.04;75.10;100883.99;1681412;81;26495;-80
2021/01/16 06:11:50;;;;;;;49.95;23.87;;;;;;;-5.07;75.15;100878.95;1733277;81;25880;-81
2021/01/16 06:14:19;;;;;;;50.23;24.63;;;;;;;-5.10;75.40;100873.42;1669163;81;25897;-80
2021/01/16 06:16:50;;;;;;;53.58;24.80;;;;;;;-5.09;75.60;100867.74;1679896;81;25805;-80
2021/01/16 06:19:25;;;;;;;52.13;26.25;;;;;;;-5.07;75.88;100872.42;1711368;81;25970;-80
2021/01/16 06:21:54;;;;;;;47.88;23.65;;;;;;;-5.00;75.92;100875.91;1732510;81;27505;-82
2021/01/16 06:24:25;;;;;;;46.83;22.52;;;;;;;-4.96;75.99;100876.12;1691058;83;26338;-80
2021/01/16 06:27:00;;;;;;;47.93;22.65;;;;;;;-4.87;76.09;100870.87;1695819;81;25739;-79
2021/01/16 06:29:33;;;;;;;55.58;22.10;;;;;;;-4.80;76.06;100880.08;1710427;83;26168;-80
2021/01/16 06:32:07;;;;;;;57.78;22.87;;;;;;;-4.81;75.95;100882.30;1719165;81;25883;-80
2021/01/16 06:34:41;;;;;;;53.50;23.50;;;;;;;-4.80;75.85;100878.31;1668139;81;28513;-81
2021/01/16 06:37:14;;;;;;;58.20;23.50;;;;;;;-4.74;76.00;100873.20;1713334;81;25807;-80
2021/01/16 06:39:45;;;;;;;58.05;24.27;;;;;;;-4.71;75.73;100870.44;1712088;81;25761;-80
2021/01/16 06:42:15;;;;;;;;;;;;;;;-4.77;75.54;100870.78;1741467;80;26075;-82
2021/01/16 06:44:43;;;;;;;58.87;26.48;;;;;;;-4.87;75.56;100873.48;1715564;81;26089;-79
2021/01/16 06:47:10;;;;;;;52.70;24.32;;;;;;;-4.85;75.86;100867.26;1706118;83;27686;-79
2021/01/16 06:49:38;;;;;;;58.98;26.48;;;;;;;-4.82;76.01;100863.19;1690954;81;26426;-80
2021/01/16 06:52:07;;;;;;;51.98;26.27;;;;;;;-4.76;76.16;100867.22;1695060;81;25815;-79
2021/01/16 06:54:37;;;;;;;54.38;24.70;;;;;;;-4.68;76.12;100868.13;1718381;83;25868;-79
2021/01/16 06:57:12;;;;;;;57.62;25.88;;;;;;;-4.62;76.17;100866.02;1684274;83;26576;-79
2021/01/16 06:59:42;;;;;;;57.10;24.57;;;;;;;-4.54;76.20;100868.20;1705966;81;27509;-80
2021/01/16 07:02:35;;;;;;;54.80;25.27;;;;;;;-4.49;76.25;100863.56;1712652;81;25782;-79
2021/01/16 07:05:10;;;;;;;52.20;25.32;;;;;;;-4.46;76.23;100862.92;1711434;81;25960;-80
2021/01/16 07:07:40;;;;;;;53.00;24.52;;;;;;;-4.35;76.46;100856.63;1714985;81;26036;-79
2021/01/16 07:10:12;;;;;;;51.85;24.87;;;;;;;-4.34;76.25;100850.95;1715034;81;25889;-80
2021/01/16 07:12:49;;;;;;;65.45;27.15;;;;;;;-4.39;76.20;100851.66;1719183;81;27519;-80
2021/01/16 07:15:23;;;;;;;56.85;25.60;;;;;;;-4.35;76.50;100851.41;1718033;81;25854;-81
2021/01/16 07:17:51;;;;;;;56.68;25.02;;;;;;;-4.30;76.52;100855.07;1704858;81;26514;-79
2021/01/16 07:20:21;;;;;;;53.70;24.32;;;;;;;-4.27;76.54;100854.88;1716775;81;25797;-80
2021/01/16 07:22:52;;;;;;;53.90;26.85;;;;;;;-4.31;76.36;100857.30;1689263;81;25782;-79
2021/01/16 07:25:21;;;;;;;63.00;28.65;;;;;;;-4.33;76.58;100850.00;1692195;81;28458;-81
2021/01/16 07:27:50;;;;;;;75.78;31.23;;;;;;;-4.28;76.72;100851.45;1725724;81;26134;-80
2021/01/16 07:30:18;;;;;;;64.40;31.33;;;;;;;-4.27;76.58;100854.88;1701158;81;26472;-80
2021/01/16 07:32:49;;;;;;;53.45;26.17;;;;;;;-4.30;76.64;100850.66;1700016;81;26223;-80
2021/01/16 07:35:20;;;;;;;59.58;26.40;;;;;;;-4.25;76.83;100845.17;1706089;82;25998;-80
2021/01/16 07:37:52;;;;;;;65.25;28.95;;;;;;;-4.20;76.88;100841.39;1697643;81;27770;-80
2021/01/16 07:40:28;;;;;;;51.60;25.65;;;;;;;-4.19;76.64;100838.31;1701511;81;26404;-81
2021/01/16 07:42:59;;;;;;;53.68;25.02;;;;;;;-4.16;76.84;100831.58;1704314;81;25864;-80
2021/01/16 07:45:30;;;;;;;44.33;20.85;;;;;;;-4.10;76.91;100832.53;1736830;80;34969;-79
2021/01/16 07:48:04;;;;;;;45.25;20.90;;;;;;;-4.04;76.96;100825.62;1744891;80;26456;-80
2021/01/16 07:50:34;;;;;;;49.48;23.42;;;;;;;-3.93;77.13;100829.77;1749471;81;27539;-82
2021/01/16 07:53:08;;;;;;;48.73;22.00;;;;;;;-3.82;77.10;100819.98;1736284;80;25753;-77
2021/01/16 07:55:41;;;;;;;47.88;21.87;;;;;;;-3.77;76.82;100817.95;1702154;80;25729;-79
2021/01/16 07:58:35;;;;;;;41.83;20.35;;;;;;;-3.73;76.79;100811.59;1737384;80;25806;-79
2021/01/16 08:01:26;;;;;;;38.05;20.75;;;;;;;-3.71;76.70;100807.11;1715670;81;26638;-82
2021/01/16 08:04:16;;;;;;;43.58;21.62;;;;;;;-3.73;76.57;100804.59;1727296;81;28521;-79
2021/01/16 08:07:04;;;;;;;103.42;40.12;;;;;;;-3.72;76.74;100793.66;1750771;80;26119;-82
2021/01/16 08:09:58;;;;;;;639.83;228.35;;;;;;;-3.67;76.74;100791.13;1719695;81;26024;-81
2021/01/16 08:12:28;;;;;;;624.88;239.72;;;;;;;-3.65;76.97;100784.48;1721224;81;26183;-80
2021/01/16 08:14:59;;;;;;;792.35;339.55;;;;;;;-3.60;76.65;100783.75;1679168;83;25874;-81
2021/01/16 08:17:38;;;;;;;144.37;61.00;;;;;;;-3.61;76.72;100779.44;1720875;83;27598;-81
2021/01/16 08:20:19;;;;;;;84.67;43.20;;;;;;;-3.58;76.48;100786.66;1693617;83;25803;-81
2021/01/16 08:22:51;;;;;;;59.85;37.35;;;;;;;-3.58;76.55;100777.95;1688235;83;25956;-81
2021/01/16 08:25:26;;;;;;;42.38;21.65;;;;;;;-3.55;76.58;100779.09;1693076;83;25962;-80
2021/01/16 08:27:59;;;;;;;39.50;19.30;;;;;;;-3.45;76.52;100777.13;1677419;83;25834;-79
2021/01/16 08:30:33;;;;;;;42.13;19.20;;;;;;;-3.41;76.34;100772.08;1699950;82;28601;-80
2021/01/16 08:33:09;;;;;;;35.33;18.77;;;;;;;-3.35;76.59;100770.84;1720882;81;25884;-80
2021/01/16 08:35:45;;;;;;;37.30;18.73;;;;;;;-3.26;76.61;100764.58;1723582;82;25859;-80
2021/01/16 08:38:19;;;;;;;52.17;22.65;;;;;;;-3.19;76.59;100761.93;1712545;82;25832;-80
2021/01/16 08:41:05;;;;;;;51.70;27.90;;;;;;;-3.12;76.21;100758.95;1736816;81;26148;-79
2021/01/16 08:43:44;;;;;;;35.85;17.65;;;;;;;-3.12;76.11;100755.37;1701507;82;28086;-80
2021/01/16 08:46:36;;;;;;;44.88;24.43;;;;;;;-3.12;76.03;100747.16;1706927;81;25934;-80
2021/01/16 08:49:17;;;;;;;40.85;19.48;;;;;;;-3.12;76.31;100751.09;1680981;84;25768;-80
2021/01/16 08:51:51;;;;;;;39.67;19.92;;;;;;;-3.13;76.15;100743.70;1751678;80;25933;-80
2021/01/16 08:54:23;;;;;;;43.98;21.93;;;;;;;-3.20;76.21;100741.08;1732441;81;27119;-81
2021/01/16 08:57:00;;;;;;;41.95;19.27;;;;;;;-3.21;76.40;100739.41;1717947;81;27713;-80
2021/01/16 08:59:32;;;;;;;34.00;17.87;;;;;;;-3.22;76.43;100729.40;1725428;81;26341;-81
2021/01/16 09:02:18;;;;;;;44.38;20.43;;;;;;;-3.22;76.62;100727.23;1725342;81;25914;-80
2021/01/16 09:04:46;;;;;;;51.35;23.73;;;;;;;-3.25;76.65;100730.07;1707277;82;26499;-81
2021/01/16 09:07:24;;;;;;;63.17;29.15;;;;;;;-3.26;77.00;100724.44;1703145;82;25350;-80
2021/01/16 09:10:06;;;;;;;61.08;28.35;;;;;;;-3.26;77.12;100721.83;1709752;82;27535;-81
2021/01/16 09:12:40;;;;;;;61.48;30.23;;;;;;;-3.27;77.29;100715.73;1721300;81;25878;-80
2021/01/16 09:15:26;;;;;;;82.45;40.52;;;;;;;-3.28;77.49;100715.84;1673945;83;25788;-80
2021/01/16 09:18:05;;;;;;;75.10;34.58;;;;;;;-3.25;77.73;100707.31;1727982;81;25863;-80
2021/01/16 09:20:37;;;;;;;90.25;40.63;;;;;;;-3.23;77.89;100702.81;1725352;81;26207;-80
2021/01/16 09:23:38;;;;;;;79.40;36.50;;;;;;;-3.21;77.85;100699.62;1726109;81;27324;-80
2021/01/16 09:26:10;;;;;;;78.30;37.60;;;;;;;-3.16;77.96;100698.88;1727898;81;26369;-79
2021/01/16 09:29:00;;;;;;;85.97;42.08;;;;;;;-3.17;78.04;100695.06;1705686;81;25865;-82
2021/01/16 09:31:34;;;;;;;67.70;32.67;;;;;;;-3.09;78.31;100695.40;1745175;81;25854;-79
2021/01/16 09:34:13;;;;;;;72.05;35.15;;;;;;;-3.06;78.36;100688.67;1688594;83;26077;-79
2021/01/16 09:36:47;;;;;;;80.95;37.93;;;;;;;-3.06;78.36;100686.05;1743036;81;27730;-80
2021/01/16 09:39:25;;;;;;;55.70;29.20;;;;;;;-3.00;78.48;100689.58;1729374;81;26277;-79
2021/01/16 09:41:58;;;;;;;51.48;25.85;;;;;;;-2.93;78.39;100682.16;1729386;81;25964;-80
2021/01/16 09:44:43;;;;;;;81.35;36.00;;;;;;;-2.93;78.48;100676.42;1692721;83;25862;-81
2021/01/16 09:47:33;;;;;;;108.95;46.00;;;;;;;-2.92;78.46;100674.20;1728068;81;25839;-78
2021/01/16 09:50:06;;;;;;;68.65;35.17;;;;;;;-2.89;78.71;100667.45;1716566;83;27382;-79
2021/01/16 09:52:34;;;;;;;51.00;27.20;;;;;;;-2.90;78.53;100659.20;1729013;81;25804;-77
2021/01/16 09:55:03;;;;;;;65.03;35.38;;;;;;;-2.95;78.62;100652.11;1679493;83;25915;-78
2021/01/16 09:57:40;;;;;;;79.58;40.03;;;;;;;-2.88;78.96;100650.77;1724589;81;25866;-78
2021/01/16 10:00:16;;;;;;;73.60;36.60;;;;;;;-2.79;78.76;100638.84;1668518;83;25810;-79
2021/01/16 10:02:45;;;;;;;47.62;25.35;;;;;;;-2.73;78.88;100630.11;1667844;83;27549;-80
2021/01/16 10:05:18;;;;;;;47.48;24.75;;;;;;;-2.68;78.94;100621.47;1670699;83;26462;-79
2021/01/16 10:07:54;;;;;;;56.13;27.85;;;;;;;-2.59;78.91;100622.14;1837241;77;25753;-79
2021/01/16 10:10:22;;;;;;;52.03;30.30;;;;;;;-2.65;78.83;100616.50;1792259;78;25935;-79
2021/01/16 10:12:57;;;;;;;47.95;26.68;;;;;;;-2.66;78.98;100603.86;1767755;80;28263;-79
2021/01/16 10:15:33;;;;;;;50.83;27.70;;;;;;;-2.63;79.36;100598.39;1796460;78;25754;-80
2021/01/16 10:18:00;;;;;;;51.48;26.37;;;;;;;-2.60;79.28;100581.62;1726239;80;26043;-79
2021/01/16 10:20:35;;;;;;;49.30;25.92;;;;;;;-2.54;79.30;100575.95;1734671;80;25881;-78
2021/01/16 10:23:07;;;;;;;56.58;32.75;;;;;;;-2.49;79.26;100568.63;1736539;80;25956;-81
2021/01/16 10:25:43;;;;;;;56.37;28.38;;;;;;;-2.46;79.21;100567.11;1733247;81;28504;-79
2021/01/16 10:28:12;;;;;;;59.18;29.60;;;;;;;-2.43;79.20;100569.51;1709322;81;26036;-80
2021/01/16 10:31:01;;;;;;;49.33;25.90;;;;;;;-2.46;79.34;100563.17;1738317;80;26363;-80
2021/01/16 10:33:44;;;;;;;35.85;19.50;;;;;;;-2.43;79.35;100557.70;1752711;80;25953;-80
2021/01/16 10:36:15;;;;;;;48.10;22.65;;;;;;;-2.44;79.48;100557.36;1758364;80;26340;-80
2021/01/16 10:38:50;;;;;;;38.20;18.73;;;;;;;-2.47;79.53;100557.55;1746664;80;28486;-80
2021/01/16 10:41:34;;;;;;;40.38;19.65;;;;;;;-2.45;79.76;100556.97;1737753;80;26084;-79
2021/01/16 10:44:06;;;;;;;32.63;16.30;;;;;;;-2.44;79.81;100552.11;1734209;80;25867;-79
2021/01/16 10:46:41;;;;;;;33.40;15.48;;;;;;;-2.39;79.93;100541.66;1761347;80;25861;-79
2021/01/16 10:49:23;;;;;;;28.00;15.10;;;;;;;-2.27;79.95;100523.39;1791909;79;25795;-80
2021/01/16 10:52:02;;;;;;;45.15;22.95;;;;;;;-2.25;79.90;100522.34;1751005;80;25938;-80
2021/01/16 10:54:31;;;;;;;35.58;21.40;;;;;;;-2.23;79.86;100509.11;1741463;80;27312;-79
2021/01/16 10:57:03;;;;;;;55.65;25.55;;;;;;;-2.16;80.07;100514.30;1761779;80;25549;-81
2021/01/16 10:59:34;;;;;;;80.77;35.63;;;;;;;-2.12;79.91;100511.82;1731858;80;25904;-81
2021/01/16 11:02:12;;;;;;;63.87;25.85;;;;;;;-2.04;79.95;100505.55;1829859;77;26415;-80
2021/01/16 11:04:42;;;;;;;64.40;28.07;;;;;;;-2.07;80.01;100508.37;1804317;78;26086;-79
2021/01/16 11:07:12;;;;;;;85.05;39.70;;;;;;;-2.07;79.95;100505.28;1768741;78;32711;-81
2021/01/16 11:09:43;;;;;;;58.85;27.90;;;;;;;-2.05;80.05;100494.20;1774170;78;25852;-80
2021/01/16 11:12:13;;;;;;;28.73;17.00;;;;;;;-1.99;80.20;100481.95;1802094;78;25835;-80
2021/01/16 11:14:43;;;;;;;33.10;15.63;;;;;;;-1.97;79.99;100475.30;1765283;78;26183;-80
2021/01/16 11:17:12;;;;;;;19.37;10.68;;;;;;;-1.94;80.02;100473.28;1776834;78;25808;-81
2021/01/16 11:19:42;;;;;;;21.82;11.22;;;;;;;-1.91;80.10;100465.66;1797630;78;27536;-80
2021/01/16 11:22:12;;;;;;;21.55;11.03;;;;;;;-1.91;80.11;100458.64;1753439;79;26476;-80
2021/01/16 11:25:11;;;;;;;18.73;9.10;;;;;;;-1.87;80.26;100463.17;1769164;79;26213;-80
2021/01/16 11:27:44;;;;;;;;;;;;;;;-1.86;80.12;100459.62;1757730;79;25792;-80
2021/01/16 11:30:20;;;;;;;;;;;;;;;-1.85;80.23;100459.50;1801291;78;26428;-80
2021/01/16 11:32:49;;;;;;;21.15;11.78;;;;;;;-1.85;80.11;100453.41;1783513;78;28529;-80
2021/01/16 11:35:16;;;;;;;29.10;11.88;;;;;;;-1.86;80.22;100447.80;1766147;79;25783;-80
2021/01/16 11:37:51;;;;;;;12.58;7.45;;;;;;;-1.85;80.02;100438.96;1795519;78;26333;-80
2021/01/16 11:40:31;;;;;;;23.00;10.38;;;;;;;-1.85;80.02;100438.96;1773539;78;25905;-80
2021/01/16 11:43:09;;;;;;;14.80;8.30;;;;;;;-1.85;79.98;100435.88;1745314;81;25802;-80
2021/01/16 11:45:39;;;;;;;15.70;8.80;;;;;;;-1.81;79.86;100428.13;1704390;82;27080;-80
2021/01/16 11:48:18;;;;;;;15.32;7.30;;;;;;;-1.77;79.42;100426.95;1755446;81;25895;-80
2021/01/16 11:50:45;;;;;;;46.23;18.07;;;;;;;-1.76;79.39;100419.92;1723921;81;25837;-80
2021/01/16 11:53:13;;;;;;;43.30;24.90;;;;;;;-1.74;79.59;100424.11;1703735;81;25819;-80
2021/01/16 11:55:41;;;;;;;24.87;13.32;;;;;;;-1.73;79.65;100411.80;1717325;81;25869;-80
2021/01/16 11:58:10;;;;;;;17.07;10.60;;;;;;;-1.71;79.63;100402.05;1756624;81;27708;-81
2021/01/16 12:00:39;;;;;;;36.30;16.25;;;;;;;-1.73;79.64;100399.52;1730660;81;26158;-80
2021/01/16 12:03:07;;;;;;;26.82;14.05;;;;;;;-1.73;79.42;100394.27;1743879;81;25918;-81
2021/01/16 12:05:35;;;;;;;26.85;14.78;;;;;;;-1.70;79.62;100386.17;1723958;81;25780;-81
2021/01/16 12:08:05;;;;;;;27.50;15.25;;;;;;;-1.69;79.36;100384.39;1722067;82;25439;-80
2021/01/16 12:10:34;;;;;;;24.80;15.30;;;;;;;-1.66;79.25;100376.27;1695405;82;27543;-81
2021/01/16 12:13:07;;;;;;;33.05;17.10;;;;;;;-1.66;78.97;100367.08;1719338;81;26500;-81
2021/01/16 12:15:34;;;;;;;20.62;12.35;;;;;;;-1.75;79.26;100346.28;1716343;81;26655;-80
2021/01/16 12:18:04;;;;;;;22.35;13.40;;;;;;;-1.75;79.26;100346.28;1740322;81;25878;-80